createdAt,value
2022-10-09T00:01:29.715Z,7.78
2022-10-09T00:04:00.062Z,9.20
2022-10-09T00:06:31.081Z,7.43
2022-10-09T00:09:01.934Z,8.18
2022-10-09T00:11:33.466Z,9.13
2022-10-09T00:14:02.799Z,8.70
2022-10-09T00:16:31.480Z,7.32
2022-10-09T00:19:01.024Z,9.20
2022-10-09T00:21:32.059Z,8.90
2022-10-09T00:24:03.483Z,7.50
2022-10-09T00:26:31.996Z,8.85
2022-10-09T00:29:00.395Z,9.52
2022-10-09T00:31:29.099Z,11.07
2022-10-09T00:33:57.386Z,10.88
2022-10-09T00:36:28.319Z,10.55
2022-10-09T00:38:57.605Z,10.82
2022-10-09T00:41:28.915Z,10.35
2022-10-09T00:43:59.992Z,11.27
2022-10-09T00:46:37.728Z,10.13
2022-10-09T00:49:26.797Z,10.73
2022-10-09T00:52:01.070Z,12.60
2022-10-09T00:54:34.519Z,10.45
2022-10-09T00:57:03.377Z,11.52
2022-10-09T00:59:32.734Z,11.82
2022-10-09T01:02:00.933Z,9.82
2022-10-09T01:04:29.205Z,11.13
2022-10-09T01:07:18.895Z,10.35
2022-10-09T01:09:58.079Z,10.40
2022-10-09T01:12:41.089Z,10.48
2022-10-09T01:15:18.759Z,10.50
2022-10-09T01:17:57.184Z,10.43
2022-10-09T01:20:48.759Z,10.00
2022-10-09T01:23:47.894Z,10.75
2022-10-09T01:26:57.885Z,8.20
2022-10-09T01:29:33.076Z,9.05
2022-10-09T01:32:03.666Z,8.90
2022-10-09T01:34:34.077Z,9.80
2022-10-09T01:37:04.778Z,10.05
2022-10-09T01:39:36.282Z,9.13
2022-10-09T01:42:06.795Z,9.52
2022-10-09T01:44:35.575Z,10.02
2022-10-09T01:47:04.617Z,9.90
2022-10-09T01:49:48.373Z,10.15
2022-10-09T01:52:39.147Z,10.15
2022-10-09T01:55:26.648Z,11.00
2022-10-09T01:58:05.360Z,11.93
2022-10-09T02:00:40.591Z,11.27
2022-10-09T02:03:14.638Z,10.68
2022-10-09T02:05:46.829Z,10.20
2022-10-09T02:08:20.207Z,10.25
2022-10-09T02:10:52.798Z,11.20
2022-10-09T02:13:25.055Z,11.95
2022-10-09T02:16:02.025Z,9.63
2022-10-09T02:18:39.138Z,10.73
2022-10-09T02:23:46.281Z,10.10
2022-10-09T02:26:15.217Z,11.40
2022-10-09T02:28:46.228Z,10.65
2022-10-09T02:31:23.972Z,12.10
2022-10-09T02:33:57.336Z,12.18
2022-10-09T02:36:25.751Z,11.98
2022-10-09T02:38:56.419Z,13.38
2022-10-09T02:41:25.608Z,12.80
2022-10-09T02:43:55.367Z,12.55
2022-10-09T02:46:24.473Z,12.65
2022-10-09T02:48:52.799Z,12.15
2022-10-09T02:51:21.150Z,12.98
2022-10-09T02:53:49.295Z,11.48
2022-10-09T02:56:17.336Z,12.02
2022-10-09T02:58:45.351Z,13.93
2022-10-09T03:01:15.254Z,11.80
2022-10-09T03:03:43.633Z,14.10
2022-10-09T03:06:15.356Z,11.15
2022-10-09T03:08:46.850Z,13.80
2022-10-09T03:11:17.532Z,12.57
2022-10-09T03:13:46.460Z,11.18
2022-10-09T03:16:18.719Z,11.23
2022-10-09T03:18:47.966Z,11.93
2022-10-09T03:21:19.077Z,12.43
2022-10-09T03:23:48.009Z,11.90
2022-10-09T03:26:18.868Z,12.30
2022-10-09T03:28:49.956Z,13.55
2022-10-09T03:31:46.941Z,11.77
2022-10-09T03:34:11.892Z,11.57
2022-10-09T03:36:40.106Z,12.35
2022-10-09T03:39:08.148Z,11.38
2022-10-09T03:41:36.399Z,13.38
2022-10-09T03:44:04.578Z,11.55
2022-10-09T03:46:34.072Z,12.77
2022-10-09T03:49:02.478Z,13.15
2022-10-09T03:51:30.839Z,12.40
2022-10-09T03:53:58.903Z,13.60
2022-10-09T03:56:26.925Z,14.07
2022-10-09T03:58:54.970Z,11.68
2022-10-09T04:01:23.067Z,11.93
2022-10-09T04:03:52.598Z,11.40
2022-10-09T04:06:20.570Z,11.77
2022-10-09T04:08:48.638Z,11.95
2022-10-09T04:11:16.675Z,12.90
2022-10-09T04:13:44.883Z,11.90
2022-10-09T04:16:13.086Z,11.15
2022-10-09T04:18:43.077Z,12.23
2022-10-09T04:21:13.413Z,11.82
2022-10-09T04:23:41.787Z,14.10
2022-10-09T04:26:13.748Z,11.80
2022-10-09T04:28:41.828Z,12.32
2022-10-09T04:31:10.131Z,11.25
2022-10-09T04:33:38.440Z,11.30
2022-10-09T04:36:07.043Z,11.05
2022-10-09T04:38:36.568Z,12.55
2022-10-09T04:41:07.775Z,11.50
2022-10-09T04:43:36.971Z,12.50
2022-10-09T04:46:07.141Z,12.70
2022-10-09T04:48:39.419Z,11.38
2022-10-09T04:51:08.721Z,14.02
2022-10-09T04:53:39.955Z,11.90
2022-10-09T04:56:11.175Z,11.13
2022-10-09T04:58:40.669Z,11.52
2022-10-09T05:01:12.102Z,11.88
2022-10-09T05:03:40.341Z,12.90
2022-10-09T05:06:11.935Z,12.15
2022-10-09T05:08:43.060Z,10.68
2022-10-09T05:11:15.131Z,11.93
2022-10-09T05:13:46.771Z,11.98
2022-10-09T05:16:18.307Z,10.90
2022-10-09T05:18:49.069Z,13.00
2022-10-09T05:21:18.172Z,10.93
2022-10-09T05:23:48.696Z,11.05
2022-10-09T05:26:20.421Z,10.93
2022-10-09T05:28:49.181Z,10.93
2022-10-09T05:31:22.287Z,11.60
2022-10-09T05:33:51.330Z,10.80
2022-10-09T05:36:20.461Z,10.95
2022-10-09T05:38:50.569Z,13.40
2022-10-09T05:41:20.053Z,12.07
2022-10-09T05:43:50.646Z,10.45
2022-10-09T05:46:23.341Z,10.95
2022-10-09T05:48:55.452Z,9.55
2022-10-09T05:51:25.818Z,11.75
2022-10-09T05:53:56.623Z,10.98
2022-10-09T05:56:27.534Z,11.48
2022-10-09T05:58:58.507Z,10.90
2022-10-09T06:01:29.323Z,9.98
2022-10-09T06:04:00.409Z,11.20
2022-10-09T06:06:32.220Z,10.48
2022-10-09T06:09:02.843Z,10.85
2022-10-09T06:11:33.800Z,9.98
2022-10-09T06:14:05.153Z,10.45
2022-10-09T06:16:35.712Z,12.18
2022-10-09T06:19:06.001Z,10.77
2022-10-09T06:21:35.506Z,10.65
2022-10-09T06:24:06.873Z,10.32
2022-10-09T06:26:35.980Z,10.40
2022-10-09T06:29:04.448Z,9.98
2022-10-09T06:31:34.393Z,10.88
2022-10-09T06:34:04.845Z,12.00
2022-10-09T06:36:36.367Z,10.20
2022-10-09T06:39:08.595Z,10.85
2022-10-09T06:41:37.303Z,10.55
2022-10-09T06:44:11.746Z,10.68
2022-10-09T06:46:42.871Z,9.77
2022-10-09T06:49:12.670Z,11.77
2022-10-09T06:51:41.905Z,10.73
2022-10-09T06:54:16.522Z,9.90
2022-10-09T06:56:45.754Z,9.00
2022-10-09T06:59:14.144Z,10.52
2022-10-09T07:01:42.681Z,9.60
2022-10-09T07:04:15.242Z,9.38
2022-10-09T07:07:15.423Z,7.75
2022-10-09T07:09:50.692Z,8.68
2022-10-09T07:12:21.429Z,7.93
2022-10-09T07:14:54.761Z,8.43
2022-10-09T07:17:23.003Z,8.27
2022-10-09T07:19:51.250Z,7.93
2022-10-09T07:22:42.570Z,7.20
2022-10-09T07:25:14.172Z,5.78
2022-10-09T07:27:47.693Z,7.55
2022-10-09T07:30:16.038Z,6.55
2022-10-09T07:32:44.413Z,6.18
2022-10-09T07:35:12.474Z,5.35
2022-10-09T07:37:40.502Z,4.28
2022-10-09T07:40:09.612Z,3.60
2022-10-09T07:42:39.028Z,3.63
2022-10-09T07:45:08.302Z,2.25
2022-10-09T07:47:36.465Z,2.05
2022-10-09T07:50:05.029Z,2.42
2022-10-09T07:52:33.233Z,2.25
2022-10-09T07:55:01.442Z,1.60
2022-10-09T07:57:30.339Z,2.72
2022-10-09T07:59:59.875Z,1.60
2022-10-09T08:02:28.133Z,1.90
2022-10-09T08:04:56.248Z,1.90
2022-10-09T08:07:24.487Z,1.15
2022-10-09T08:09:53.564Z,1.67
2022-10-09T08:12:21.749Z,1.52
2022-10-09T08:14:49.926Z,1.75
2022-10-09T08:17:19.535Z,1.85
2022-10-09T08:19:48.032Z,1.63
2022-10-09T08:22:16.222Z,1.30
2022-10-09T08:24:44.456Z,1.85
2022-10-09T08:27:12.544Z,1.25
2022-10-09T08:29:40.754Z,1.48
2022-10-09T08:32:08.928Z,1.63
2022-10-09T08:34:38.493Z,1.77
2022-10-09T08:37:06.760Z,1.17
2022-10-09T08:39:45.640Z,1.65
2022-10-09T08:43:03.681Z,0.90
2022-10-09T08:49:23.239Z,1.17
2022-10-09T08:51:54.330Z,1.33
2022-10-09T08:54:34.365Z,1.92
2022-10-09T08:57:12.112Z,1.10
2022-10-09T08:59:45.081Z,1.30
2022-10-09T09:02:49.629Z,1.17
2022-10-09T09:05:37.884Z,1.23
2022-10-09T09:08:26.965Z,1.33
2022-10-09T09:11:21.262Z,1.17
2022-10-09T09:14:03.547Z,1.30
2022-10-09T09:16:44.601Z,1.17
2022-10-09T09:19:39.401Z,1.85
2022-10-09T09:22:21.756Z,1.05
2022-10-09T09:24:57.687Z,1.20
2022-10-09T09:27:33.788Z,1.35
2022-10-09T09:30:31.399Z,1.08
2022-10-09T09:33:14.843Z,0.80
2022-10-09T09:35:53.335Z,0.70
2022-10-09T09:38:24.378Z,0.88
2022-10-09T09:40:55.067Z,1.55
2022-10-09T09:43:27.383Z,0.82
2022-10-09T09:46:04.317Z,1.98
2022-10-09T09:48:38.620Z,2.20
2022-10-09T09:51:27.851Z,1.17
2022-10-09T09:54:00.197Z,2.50
2022-10-09T09:57:06.988Z,0.88
2022-10-09T09:59:34.241Z,1.00
2022-10-09T10:02:12.399Z,0.80
2022-10-09T10:04:52.323Z,1.50
2022-10-09T10:07:32.252Z,1.55
2022-10-09T10:10:07.447Z,0.75
2022-10-09T10:12:42.817Z,1.13
2022-10-09T10:15:30.755Z,0.98
2022-10-09T10:18:03.127Z,1.00
2022-10-09T10:20:45.265Z,1.25
2022-10-09T10:23:32.508Z,0.82
2022-10-09T10:26:07.817Z,0.90
2022-10-09T10:29:04.973Z,0.70
2022-10-09T10:31:47.520Z,1.10
2022-10-09T10:34:28.282Z,1.35
2022-10-09T10:37:07.234Z,0.82
2022-10-09T10:39:44.961Z,1.30
2022-10-09T10:42:23.627Z,0.90
2022-10-09T10:45:04.593Z,0.98
2022-10-09T10:47:42.492Z,0.70
2022-10-09T10:50:17.346Z,0.75
2022-10-09T10:53:08.532Z,0.60
2022-10-09T10:55:52.006Z,1.25
2022-10-09T10:58:31.366Z,1.08
2022-10-09T11:01:26.681Z,1.25
2022-10-09T11:04:28.288Z,0.65
2022-10-09T11:07:11.078Z,0.88
2022-10-09T11:09:53.192Z,1.27
2022-10-09T11:12:47.272Z,0.50
2022-10-09T11:15:31.625Z,0.88
2022-10-09T11:18:23.431Z,0.95
2022-10-09T11:21:13.991Z,1.13
2022-10-09T11:24:17.457Z,0.60
2022-10-09T11:27:02.384Z,1.33
2022-10-09T11:29:39.808Z,0.60
2022-10-09T11:32:19.538Z,0.77
2022-10-09T11:34:59.686Z,0.70
2022-10-09T11:37:35.119Z,0.63
2022-10-09T11:40:14.558Z,0.93
2022-10-09T11:42:43.211Z,0.60
2022-10-09T11:45:27.748Z,0.73
2022-10-09T11:48:08.517Z,1.15
2022-10-09T11:50:54.802Z,0.90
2022-10-09T11:53:26.839Z,0.97
2022-10-09T11:56:06.474Z,0.60
2022-10-09T11:58:35.293Z,1.15
2022-10-09T12:01:24.386Z,0.95
2022-10-09T12:04:05.824Z,0.85
2022-10-09T12:06:48.503Z,0.90
2022-10-09T12:09:35.524Z,0.98
2022-10-09T12:12:07.436Z,1.30
2022-10-09T12:14:40.313Z,1.67
2022-10-09T12:17:38.476Z,1.60
2022-10-09T12:20:20.174Z,0.93
2022-10-09T12:25:56.205Z,1.17
2022-10-09T12:28:31.861Z,1.15
2022-10-09T12:31:04.755Z,0.70
2022-10-09T12:33:49.360Z,0.80
2022-10-09T12:36:25.310Z,1.33
2022-10-09T12:38:55.352Z,1.05
2022-10-09T12:41:28.948Z,2.15
2022-10-09T12:43:59.407Z,1.08
2022-10-09T12:46:31.521Z,0.68
2022-10-09T12:49:01.672Z,1.00
2022-10-09T12:51:33.246Z,0.60
2022-10-09T12:54:11.537Z,1.65
2022-10-09T12:56:42.385Z,0.65
2022-10-09T12:59:14.070Z,1.27
2022-10-09T13:01:44.512Z,1.75
2022-10-09T13:04:31.050Z,0.68
2022-10-09T13:07:03.194Z,1.43
2022-10-09T13:09:41.367Z,1.35
2022-10-09T13:12:17.981Z,1.33
2022-10-09T13:17:39.720Z,0.88
2022-10-09T13:20:26.265Z,0.93
2022-10-09T13:22:57.949Z,0.93
2022-10-09T13:25:52.809Z,0.88
2022-10-09T13:28:22.173Z,0.70
2022-10-09T13:33:46.136Z,1.27
2022-10-09T13:36:18.767Z,0.82
2022-10-09T13:38:48.659Z,0.77
2022-10-09T13:41:24.493Z,1.00
2022-10-09T13:43:54.926Z,1.03
2022-10-09T13:46:26.110Z,0.85
2022-10-09T13:48:54.322Z,0.70
2022-10-09T13:51:22.487Z,0.57
2022-10-09T13:53:51.709Z,0.77
2022-10-09T13:56:21.357Z,0.73
2022-10-09T13:58:49.717Z,1.20
2022-10-09T14:01:22.742Z,0.63
2022-10-09T14:03:51.268Z,1.25
2022-10-09T14:06:26.062Z,0.70
2022-10-09T14:09:14.638Z,0.85
2022-10-09T14:11:49.185Z,1.05
2022-10-09T14:14:17.624Z,0.40
2022-10-09T14:16:45.899Z,0.80
2022-10-09T14:19:14.106Z,0.80
2022-10-09T14:21:42.410Z,0.88
2022-10-09T14:24:11.492Z,1.58
2022-10-09T14:26:42.057Z,0.80
2022-10-09T14:29:12.471Z,0.88
2022-10-09T14:31:40.689Z,0.80
2022-10-09T14:34:09.024Z,0.60
2022-10-09T14:36:38.066Z,1.00
2022-10-09T14:39:06.258Z,0.68
2022-10-09T14:41:37.783Z,0.95
2022-10-09T14:44:07.251Z,0.73
2022-10-09T14:46:42.228Z,1.02
2022-10-09T14:49:12.286Z,0.93
2022-10-09T14:51:41.847Z,0.75
2022-10-09T14:54:13.229Z,0.70
2022-10-09T14:56:41.909Z,1.42
2022-10-09T14:59:15.490Z,0.30
2022-10-09T15:01:46.068Z,0.43
2022-10-09T15:04:15.432Z,0.60
2022-10-09T15:06:43.847Z,1.15
2022-10-09T15:09:14.929Z,0.60
2022-10-09T15:11:43.164Z,0.60
2022-10-09T15:14:11.841Z,1.13
2022-10-09T15:16:40.049Z,0.80
2022-10-09T15:19:09.996Z,1.10
2022-10-09T15:21:40.198Z,0.85
2022-10-09T15:24:11.663Z,1.05
2022-10-09T15:26:39.920Z,0.55
2022-10-09T15:29:11.513Z,0.70
2022-10-09T15:31:42.885Z,0.88
2022-10-09T15:34:19.795Z,1.30
2022-10-09T15:36:50.961Z,0.70
2022-10-09T15:39:19.245Z,0.65
2022-10-09T15:41:51.304Z,0.80
2022-10-09T15:44:23.847Z,0.90
2022-10-09T15:46:56.640Z,1.10
2022-10-09T15:49:26.524Z,1.48
2022-10-09T15:51:54.765Z,1.00
2022-10-09T15:54:23.907Z,1.15
2022-10-09T15:56:52.117Z,1.00
2022-10-09T15:59:20.565Z,1.30
2022-10-09T16:01:50.534Z,1.10
2022-10-09T16:04:19.161Z,1.67
2022-10-09T16:06:48.969Z,1.70
2022-10-09T16:09:17.326Z,1.02
2022-10-09T16:11:45.508Z,1.02
2022-10-09T16:14:13.600Z,0.98
2022-10-09T16:16:42.012Z,1.20
2022-10-09T16:19:10.081Z,1.63
2022-10-09T16:21:38.275Z,1.33
2022-10-09T16:24:07.948Z,1.20
2022-10-09T16:26:36.159Z,1.67
2022-10-09T16:29:04.825Z,1.70
2022-10-09T16:31:35.798Z,2.38
2022-10-09T16:34:05.751Z,1.20
2022-10-09T16:36:35.693Z,0.88
2022-10-09T16:39:04.182Z,1.88
2022-10-09T16:41:40.985Z,1.30
2022-10-09T16:44:17.001Z,0.70
2022-10-09T16:46:45.763Z,1.65
2022-10-09T16:49:21.326Z,1.55
2022-10-09T16:51:52.781Z,1.00
2022-10-09T16:54:21.627Z,1.13
2022-10-09T16:56:53.228Z,1.00
2022-10-09T16:59:22.145Z,0.90
2022-10-09T17:01:50.574Z,1.23
2022-10-09T17:04:18.962Z,2.78
2022-10-09T17:06:47.702Z,1.88
2022-10-09T17:09:17.651Z,2.13
2022-10-09T17:11:46.847Z,1.08
2022-10-09T17:14:17.199Z,1.80
2022-10-09T17:16:45.984Z,1.30
2022-10-09T17:19:16.042Z,4.32
2022-10-09T17:21:44.786Z,1.77
2022-10-09T17:24:16.266Z,2.28
2022-10-09T17:26:44.714Z,1.27
2022-10-09T17:29:16.030Z,1.48
2022-10-09T17:31:44.391Z,1.38
2022-10-09T17:34:24.970Z,2.40
2022-10-09T17:36:55.037Z,3.10
2022-10-09T17:39:24.699Z,15.68
2022-10-09T17:41:52.942Z,2.65
2022-10-09T17:44:23.536Z,1.48
2022-10-09T17:46:51.923Z,1.60
2022-10-09T17:49:20.594Z,2.60
2022-10-09T17:51:48.967Z,2.75
2022-10-09T17:54:18.831Z,11.88
2022-10-09T18:00:02.629Z,10.60
2022-10-09T18:02:31.222Z,9.50
2022-10-09T18:04:59.872Z,7.05
2022-10-09T18:07:28.174Z,16.35
2022-10-09T18:09:56.510Z,10.38
2022-10-09T18:12:24.840Z,8.48
2022-10-09T18:14:53.524Z,5.30
2022-10-09T18:17:26.057Z,12.55
2022-10-09T18:19:54.545Z,7.85
2022-10-09T18:22:22.840Z,7.45
2022-10-09T18:24:51.575Z,3.17
2022-10-09T19:07:52.690Z,3.40
2022-10-09T19:37:15.332Z,3.78
2022-10-09T19:39:48.583Z,3.90
2022-10-09T19:42:18.127Z,4.78
2022-10-09T19:44:47.996Z,5.63
2022-10-09T19:47:19.003Z,5.68
2022-10-09T19:49:47.760Z,5.28
2022-10-09T19:52:17.910Z,4.18
2022-10-09T19:54:49.222Z,5.47
2022-10-09T19:57:20.287Z,4.40
2022-10-09T19:59:49.467Z,4.53
2022-10-09T20:02:17.693Z,4.80
2022-10-09T20:04:56.574Z,12.55
2022-10-09T20:07:29.040Z,8.48
2022-10-09T20:09:57.437Z,13.13
2022-10-09T20:12:27.677Z,10.73
2022-10-09T20:14:56.582Z,9.43
2022-10-09T20:21:43.790Z,3.72
2022-10-09T20:24:13.490Z,4.72
2022-10-09T20:26:43.247Z,4.85
2022-10-09T20:29:21.379Z,4.10
2022-10-09T20:31:49.977Z,4.53
2022-10-09T20:37:12.141Z,5.13
2022-10-09T20:39:42.264Z,4.20
2022-10-09T20:42:11.052Z,5.63
2022-10-09T20:44:49.692Z,5.07
2022-10-09T20:47:18.286Z,6.45
2022-10-09T20:49:52.506Z,6.72
2022-10-09T20:52:20.939Z,7.18
2022-10-09T20:55:10.227Z,6.10
2022-10-09T20:57:38.616Z,6.18
2022-10-09T21:00:11.571Z,5.80
2022-10-09T21:02:51.140Z,7.25
2022-10-09T21:05:19.735Z,4.93
2022-10-09T21:07:48.177Z,5.72
2022-10-09T21:10:18.776Z,5.53
2022-10-09T21:12:47.456Z,6.63
2022-10-09T21:15:19.025Z,7.25
2022-10-09T21:17:48.093Z,6.13
2022-10-09T21:20:17.774Z,6.78
2022-10-09T21:22:51.014Z,8.02
2022-10-09T21:25:27.686Z,9.05
2022-10-09T21:27:56.841Z,7.28
2022-10-09T21:30:25.215Z,7.35
2022-10-09T21:32:53.752Z,8.43
2022-10-09T21:35:22.478Z,8.00
2022-10-09T21:38:06.153Z,8.88
2022-10-09T21:40:49.515Z,9.13
2022-10-09T21:43:20.648Z,7.10
2022-10-09T21:45:53.633Z,8.27
2022-10-09T21:48:25.064Z,9.20
2022-10-09T21:51:00.590Z,6.93
2022-10-09T21:53:29.602Z,9.65
2022-10-09T21:55:59.549Z,8.80
2022-10-09T21:58:27.803Z,7.55
2022-10-09T22:01:01.226Z,7.10
2022-10-09T22:03:32.699Z,11.23
2022-10-09T22:06:01.631Z,7.53
2022-10-09T22:08:29.847Z,6.22
2022-10-09T22:10:59.503Z,6.20
2022-10-09T22:13:27.907Z,6.45
2022-10-09T22:21:42.066Z,5.32
2022-10-09T22:24:10.903Z,7.15
2022-10-09T22:26:40.767Z,5.45
2022-10-09T22:29:09.121Z,4.93
2022-10-09T22:31:37.213Z,8.00
2022-10-09T22:34:05.619Z,6.35
2022-10-09T22:36:35.581Z,6.57
2022-10-09T22:39:07.728Z,7.45
2022-10-09T22:41:38.024Z,6.68
2022-10-09T22:44:10.099Z,6.00
2022-10-09T22:46:42.177Z,5.93
2022-10-09T22:49:14.505Z,6.82
2022-10-09T22:51:43.292Z,10.32
2022-10-09T22:54:13.508Z,6.30
2022-10-09T22:56:44.359Z,6.13
2022-10-09T22:59:17.944Z,7.47
2022-10-09T23:01:50.129Z,8.65
2022-10-09T23:04:20.221Z,6.97
2022-10-09T23:06:53.927Z,5.68
2022-10-09T23:09:23.759Z,7.35
2022-10-09T23:11:52.313Z,5.03
2022-10-09T23:14:22.168Z,4.97
2022-10-09T23:16:50.583Z,6.53
2022-10-09T23:19:19.695Z,5.72
2022-10-09T23:21:48.267Z,6.43
2022-10-09T23:24:17.941Z,6.38
2022-10-09T23:26:48.013Z,5.90
2022-10-09T23:29:20.867Z,5.55
2022-10-09T23:31:53.694Z,6.18
2022-10-09T23:34:21.919Z,5.80
2022-10-09T23:36:50.091Z,6.90
2022-10-09T23:39:18.373Z,5.82
2022-10-09T23:41:46.509Z,6.60
2022-10-09T23:44:17.740Z,6.35
2022-10-09T23:46:49.536Z,6.88
2022-10-09T23:49:17.755Z,8.18
2022-10-09T23:51:45.874Z,8.70
2022-10-09T23:54:13.952Z,6.45
2022-10-09T23:56:42.699Z,7.80
2022-10-09T23:59:13.167Z,7.47
